Miami — IBXM — position and weather

sailwx.info

Track history (hours):
 
Tides and Currents Weather Stations Pressure Air Temp Water Temp Dewpoint Dewpoint Depression Visibility Wind Speed Wind Dir Waves Ship Positions

Miami

Last reported at 2018-Jul-19 01:15 UTC. Time now 2018-Jul-19 09:45 UTC.
Position N 38°53' E 009°26'.

Length 176 m; draft 10.6 m.

Type: Ship (hazmat cat A). MMSI: 245178200.

Date/timePositionNaut miles runAvg speedWind from/ knotsBaromVisibWave heightAir tempDewpointWater temp
2018-Jul-19 01:15N 38°53' E 009°26'613.0
2018-Jul-19 00:50N 38°50' E 009°32'513.1
2018-Jul-19 00:27N 38°48' E 009°37'4013.3
2018-Jul-18 21:27N 38°26' E 010°20'11312.5
2018-Jul-18 12:24N 37°24' E 012°20'512.2
2018-Jul-18 12:00N 37°21' E 012°25'612.5
2018-Jul-18 11:30N 37°18' E 012°31'1312.6
2018-Jul-18 10:30N 37°13' E 012°46'612.8
2018-Jul-18 10:00N 37°11' E 012°53'612.6
2018-Jul-18 09:30N 37°08' E 013°01'1112.6
2018-Jul-18 08:37N 37°04' E 013°14'112.5
2018-Jul-18 08:30N 37°04' E 013°16'612.5
2018-Jul-18 08:00N 37°01' E 013°23'912.8
2018-Jul-18 07:16N 36°57' E 013°33'312.8
2018-Jul-18 07:00N 36°55' E 013°37'612.4
2018-Jul-18 06:30N 36°55' E 013°45'612.8
2018-Jul-18 06:00N 36°53' E 013°52'712.9
2018-Jul-18 05:30N 36°50' E 013°60'612.8
2018-Jul-18 05:00N 36°48' E 014°07'612.6
2018-Jul-18 04:30N 36°46' E 014°14'612.3
2018-Jul-18 04:00N 36°44' E 014°22'611.7
2018-Jul-18 03:30N 36°41' E 014°28'611.3
2018-Jul-18 03:00N 36°39' E 014°35'42912.0
2018-Jul-16 15:21N 36°46' E 023°30'412.5
2018-Jul-16 15:00N 36°50' E 023°33'612.5
2018-Jul-16 14:30N 36°55' E 023°37'612.9
2018-Jul-16 14:00N 37°00' E 023°41'712.9
2018-Jul-16 13:30N 37°06' E 023°45'613.0
2018-Jul-16 13:00N 37°11' E 023°49'713.2
2018-Jul-16 12:30N 37°17' E 023°54'713.0
2018-Jul-16 12:00N 37°23' E 023°58'612.6
2018-Jul-16 11:30N 37°28' E 024°02'8012.6
2018-Jul-16 05:09N 38°34' E 024°59'7512.8
2018-Jul-15 23:18N 39°41' E 025°42'512.4
2018-Jul-15 22:56N 39°45' E 025°46'512.8
2018-Jul-15 22:31N 39°50' E 025°49'713.8
2018-Jul-15 22:00N 39°56' E 025°54'  
2018-Jul-12 07:33N 42°34' E 031°43'113.3
2018-Jul-12 07:29N 42°34' E 031°44'613.3
2018-Jul-12 07:00N 42°38' E 031°51'22113.0
2018-Jul-11 14:01N 44°37' E 036°08'28 0.6
2018-Jul-09 16:37N 44°51' E 036°42'0 0.0
2018-Jul-09 13:07N 44°51' E 036°42'0 0.0
2018-Jul-09 10:49N 44°51' E 036°42'0 0.1
2018-Jul-09 10:28N 44°51' E 036°42'0 0.1
2018-Jul-09 09:55N 44°51' E 036°42'0 0.1
2018-Jul-09 09:16N 44°51' E 036°42'0 0.1
2018-Jul-09 08:55N 44°51' E 036°42'1 3.4
2018-Jul-09 08:30N 44°51' E 036°40'510.3
2018-Jul-09 08:00N 44°48' E 036°34'  
Track history (hours):
 
Tides and Currents Weather Stations Pressure Air Temp Water Temp Dewpoint Dewpoint Depression Visibility Wind Speed Wind Dir Waves Ship Positions

Miami

Last reported at 2018-Jul-19 01:15 UTC. Time now 2018-Jul-19 09:45 UTC.
Position N 38°53' E 009°26'.

Length 176 m; draft 10.6 m.

Type: Ship (hazmat cat A). MMSI: 245178200.

Date/timePositionNaut miles runAvg speedWind from/ knotsBaromVisibWave heightAir tempDewpointWater temp
2018-Jul-19 01:15N 38°53' E 009°26'613.0
2018-Jul-19 00:50N 38°50' E 009°32'513.1
2018-Jul-19 00:27N 38°48' E 009°37'4013.3
2018-Jul-18 21:27N 38°26' E 010°20'11312.5
2018-Jul-18 12:24N 37°24' E 012°20'512.2
2018-Jul-18 12:00N 37°21' E 012°25'612.5
2018-Jul-18 11:30N 37°18' E 012°31'1312.6
2018-Jul-18 10:30N 37°13' E 012°46'612.8
2018-Jul-18 10:00N 37°11' E 012°53'612.6
2018-Jul-18 09:30N 37°08' E 013°01'1112.6
2018-Jul-18 08:37N 37°04' E 013°14'112.5
2018-Jul-18 08:30N 37°04' E 013°16'612.5
2018-Jul-18 08:00N 37°01' E 013°23'912.8
2018-Jul-18 07:16N 36°57' E 013°33'312.8
2018-Jul-18 07:00N 36°55' E 013°37'612.4
2018-Jul-18 06:30N 36°55' E 013°45'612.8
2018-Jul-18 06:00N 36°53' E 013°52'712.9
2018-Jul-18 05:30N 36°50' E 013°60'612.8
2018-Jul-18 05:00N 36°48' E 014°07'612.6
2018-Jul-18 04:30N 36°46' E 014°14'612.3
2018-Jul-18 04:00N 36°44' E 014°22'611.7
2018-Jul-18 03:30N 36°41' E 014°28'611.3
2018-Jul-18 03:00N 36°39' E 014°35'42912.0
2018-Jul-16 15:21N 36°46' E 023°30'412.5
2018-Jul-16 15:00N 36°50' E 023°33'612.5
2018-Jul-16 14:30N 36°55' E 023°37'612.9
2018-Jul-16 14:00N 37°00' E 023°41'712.9
2018-Jul-16 13:30N 37°06' E 023°45'613.0
2018-Jul-16 13:00N 37°11' E 023°49'713.2
2018-Jul-16 12:30N 37°17' E 023°54'713.0
2018-Jul-16 12:00N 37°23' E 023°58'612.6
2018-Jul-16 11:30N 37°28' E 024°02'8012.6
2018-Jul-16 05:09N 38°34' E 024°59'7512.8
2018-Jul-15 23:18N 39°41' E 025°42'512.4
2018-Jul-15 22:56N 39°45' E 025°46'512.8
2018-Jul-15 22:31N 39°50' E 025°49'713.8
2018-Jul-15 22:00N 39°56' E 025°54'  
2018-Jul-12 07:33N 42°34' E 031°43'113.3
2018-Jul-12 07:29N 42°34' E 031°44'613.3
2018-Jul-12 07:00N 42°38' E 031°51'22113.0
2018-Jul-11 14:01N 44°37' E 036°08'28 0.6
2018-Jul-09 16:37N 44°51' E 036°42'0 0.0
2018-Jul-09 13:07N 44°51' E 036°42'0 0.0
2018-Jul-09 10:49N 44°51' E 036°42'0 0.1
2018-Jul-09 10:28N 44°51' E 036°42'0 0.1
2018-Jul-09 09:55N 44°51' E 036°42'0 0.1
2018-Jul-09 09:16N 44°51' E 036°42'0 0.1
2018-Jul-09 08:55N 44°51' E 036°42'1 3.4
2018-Jul-09 08:30N 44°51' E 036°40'510.3
2018-Jul-09 08:00N 44°48' E 036°34'  

Dump ship's entire track history